Francisco Bangoy International Airport


Codes: RPMD/DVO
Name: Francisco Bangoy International Airport
City: Davao City
Country: Philippines
Elevation: 96 ft.
Wikipedia:

Photos at Francisco Bangoy International Airport


   Photos courtesy of SpottingLog. You can add your own sightings and photos by signing up for a free trial today.



No photos found.

Weather at Francisco Bangoy International Airport


Time (UTC)DescriptionTempratureWindCloud coverageVisibilityPressureHumidity
21-Jun-2024 12:00Overcast Clouds29°C7 mph, S100%10000m1009hPa79%
21-Jun-2024 15:00Light Rain28°C7 mph, S97%10000m1009hPa80%
21-Jun-2024 18:00Overcast Clouds27°C4 mph, SW90%10000m1008hPa81%
21-Jun-2024 21:00Broken Clouds27°C4 mph, SW75%10000m1009hPa80%
22-Jun-2024 00:00Scattered Clouds28°C0 mph, SW47%10000m1011hPa78%
22-Jun-2024 03:00Scattered Clouds29°C7 mph, SE25%10000m1010hPa72%
22-Jun-2024 06:00Light Rain30°C11 mph, SE35%10000m1008hPa66%
22-Jun-2024 09:00Light Rain28°C9 mph, S76%10000m1008hPa76%
22-Jun-2024 12:00Light Rain27°C7 mph, S77%10000m1010hPa79%
22-Jun-2024 15:00Light Rain26°C4 mph, SW100%10000m1010hPa82%
22-Jun-2024 18:00Light Rain26°C2 mph, W96%10000m1009hPa84%
22-Jun-2024 21:00Light Rain25°C2 mph, NW35%10000m1010hPa88%
23-Jun-2024 00:00Light Rain26°C2 mph, N43%10000m1011hPa88%
23-Jun-2024 03:00Scattered Clouds28°C4 mph, SE25%10000m1010hPa77%
23-Jun-2024 06:00Few Clouds30°C9 mph, SE17%10000m1007hPa63%
23-Jun-2024 09:00Light Rain28°C9 mph, S38%10000m1007hPa74%
23-Jun-2024 12:00Light Rain27°C7 mph, S65%9601m1009hPa80%
23-Jun-2024 15:00Moderate Rain26°C2 mph, SW79%567m1010hPa85%
23-Jun-2024 18:00Moderate Rain25°C4 mph, NW78%10000m1009hPa87%
23-Jun-2024 21:00Overcast Clouds25°C4 mph, NW97%10000m1009hPa86%
24-Jun-2024 00:00Overcast Clouds26°C2 mph, NE92%10000m1010hPa82%
24-Jun-2024 03:00Overcast Clouds28°C7 mph, SE98%10000m1009hPa75%
24-Jun-2024 06:00Light Rain29°C7 mph, SE98%10000m1007hPa66%
24-Jun-2024 09:00Light Rain29°C7 mph, S99%10000m1007hPa70%
24-Jun-2024 12:00Light Rain27°C4 mph, SW100%8982m1009hPa78%
24-Jun-2024 15:00Moderate Rain26°C4 mph, NW100%5086m1010hPa83%
24-Jun-2024 18:00Light Rain25°C7 mph, NW99%10000m1008hPa84%
24-Jun-2024 21:00Overcast Clouds25°C4 mph, NW94%10000m1009hPa86%
25-Jun-2024 00:00Broken Clouds26°C2 mph, N75%10000m1010hPa84%
25-Jun-2024 03:00Scattered Clouds28°C4 mph, SE50%10000m1009hPa71%
25-Jun-2024 06:00Scattered Clouds30°C9 mph, SE31%10000m1006hPa65%
25-Jun-2024 09:00Light Rain28°C7 mph, S31%9478m1007hPa73%
25-Jun-2024 12:00Moderate Rain27°C4 mph, SW59%10000m1009hPa79%
25-Jun-2024 15:00Moderate Rain26°C7 mph, NW100%10000m1010hPa84%
25-Jun-2024 18:00Light Rain25°C7 mph, NW99%10000m1009hPa89%
25-Jun-2024 21:00Scattered Clouds25°C7 mph, NW30%10000m1009hPa89%
26-Jun-2024 00:00Scattered Clouds26°C7 mph, N25%10000m1010hPa85%
26-Jun-2024 03:00Broken Clouds29°C2 mph, NE71%10000m1009hPa68%
26-Jun-2024 06:00Light Rain30°C7 mph, SE83%10000m1007hPa66%
26-Jun-2024 09:00Light Rain29°C4 mph, SE93%10000m1007hPa73%